createdAt,value
2024-01-09T00:00:31.670Z,-4.31
2024-01-09T00:02:59.840Z,-4.36
2024-01-09T00:05:27.653Z,-4.41
2024-01-09T00:07:54.073Z,-4.32
2024-01-09T00:10:20.424Z,-4.39
2024-01-09T00:12:46.764Z,-4.37
2024-01-09T00:15:13.154Z,-4.40
2024-01-09T00:17:41.163Z,-4.41
2024-01-09T00:20:07.992Z,-4.39
2024-01-09T00:22:34.376Z,-4.37
2024-01-09T00:25:00.772Z,-4.46
2024-01-09T00:27:27.108Z,-4.53
2024-01-09T00:29:53.466Z,-4.53
2024-01-09T00:32:19.820Z,-4.56
2024-01-09T00:34:46.208Z,-4.51
2024-01-09T00:37:12.687Z,-4.49
2024-01-09T00:39:39.044Z,-4.51
2024-01-09T00:42:05.430Z,-4.46
2024-01-09T00:44:31.785Z,-4.50
2024-01-09T00:46:58.191Z,-4.50
2024-01-09T00:49:24.832Z,-4.56
2024-01-09T00:51:51.256Z,-4.62
2024-01-09T00:54:17.623Z,-4.49
2024-01-09T00:56:44.032Z,-4.50
2024-01-09T00:59:10.391Z,-4.53
2024-01-09T01:01:36.767Z,-4.56
2024-01-09T01:04:03.142Z,-4.64
2024-01-09T01:06:29.524Z,-4.66
2024-01-09T01:08:55.927Z,-4.67
2024-01-09T01:11:22.317Z,-4.73
2024-01-09T01:13:48.667Z,-4.65
2024-01-09T01:16:14.988Z,-4.66
2024-01-09T01:18:41.382Z,-4.70
2024-01-09T01:21:07.760Z,-4.77
2024-01-09T01:23:34.266Z,-4.73
2024-01-09T01:26:00.695Z,-4.82
2024-01-09T01:28:27.073Z,-4.84
2024-01-09T01:30:53.438Z,-4.77
2024-01-09T01:33:19.975Z,-4.84
2024-01-09T01:35:46.381Z,-4.79
2024-01-09T01:38:12.794Z,-4.86
2024-01-09T01:40:39.232Z,-4.89
2024-01-09T01:43:06.054Z,-4.84
2024-01-09T01:45:32.506Z,-4.82
2024-01-09T01:48:00.711Z,-4.87
2024-01-09T01:50:29.345Z,-4.75
2024-01-09T01:52:56.017Z,-4.87
2024-01-09T01:55:24.469Z,-4.87
2024-01-09T01:57:52.461Z,-4.90
2024-01-09T02:00:20.439Z,-4.90
2024-01-09T02:02:48.271Z,-4.96
2024-01-09T02:05:14.906Z,-4.95
2024-01-09T02:07:46.434Z,-4.90
2024-01-09T02:10:12.990Z,-4.93
2024-01-09T02:12:39.722Z,-4.87
2024-01-09T02:15:06.533Z,-4.85
2024-01-09T02:17:33.359Z,-4.78
2024-01-09T02:20:00.268Z,-4.84
2024-01-09T02:22:26.617Z,-4.88
2024-01-09T02:24:53.070Z,-4.97
2024-01-09T02:27:57.158Z,-4.99
2024-01-09T02:30:24.851Z,-5.03
2024-01-09T02:32:52.512Z,-5.02
2024-01-09T02:35:19.322Z,-5.08
2024-01-09T02:37:45.721Z,-5.11
2024-01-09T02:40:12.085Z,-5.12
2024-01-09T02:42:38.506Z,-5.13
2024-01-09T02:45:05.216Z,-5.14
2024-01-09T02:47:31.662Z,-5.17
2024-01-09T02:49:58.076Z,-5.21
2024-01-09T02:52:24.449Z,-5.17
2024-01-09T02:54:50.770Z,-5.19
2024-01-09T02:57:17.247Z,-5.19
2024-01-09T02:59:43.655Z,-5.22
2024-01-09T03:02:10.316Z,-5.22
2024-01-09T03:04:36.637Z,-5.21
2024-01-09T03:07:03.165Z,-5.23
2024-01-09T03:09:30.004Z,-5.20
2024-01-09T03:11:56.349Z,-5.24
2024-01-09T03:14:22.728Z,-5.18
2024-01-09T03:16:49.304Z,-5.22
2024-01-09T03:19:16.488Z,-5.26
2024-01-09T03:21:43.097Z,-5.22
2024-01-09T03:24:09.482Z,-5.22
2024-01-09T03:26:35.825Z,-5.20
2024-01-09T03:29:02.277Z,-5.19
2024-01-09T03:31:28.651Z,-5.21
2024-01-09T03:33:55.183Z,-5.18
2024-01-09T03:36:21.568Z,-5.17
2024-01-09T03:38:48.089Z,-5.19
2024-01-09T03:41:14.501Z,-5.13
2024-01-09T03:43:40.853Z,-5.21
2024-01-09T03:46:07.157Z,-5.19
2024-01-09T03:48:33.628Z,-5.26
2024-01-09T03:51:00.075Z,-5.10
2024-01-09T03:53:26.430Z,-5.16
2024-01-09T03:55:52.777Z,-5.23
2024-01-09T03:58:19.675Z,-5.22
2024-01-09T04:00:46.081Z,-5.18
2024-01-09T04:03:12.548Z,-5.22
2024-01-09T04:05:39.085Z,-5.15
2024-01-09T04:08:05.874Z,-5.23
2024-01-09T04:10:32.304Z,-5.31
2024-01-09T04:12:58.647Z,-5.30
2024-01-09T04:15:25.006Z,-5.33
2024-01-09T04:17:51.410Z,-5.34
2024-01-09T04:20:17.896Z,-5.30
2024-01-09T04:22:44.244Z,-5.31
2024-01-09T04:25:10.600Z,-5.28
2024-01-09T04:27:36.923Z,-5.26
2024-01-09T04:30:03.497Z,-5.24
2024-01-09T04:32:30.177Z,-5.21
2024-01-09T04:34:57.001Z,-5.42
2024-01-09T04:37:23.517Z,-5.53
2024-01-09T04:39:50.196Z,-5.51
2024-01-09T04:42:16.525Z,-5.48
2024-01-09T04:44:43.310Z,-5.41
2024-01-09T04:47:09.687Z,-5.53
2024-01-09T04:49:36.104Z,-5.46
2024-01-09T04:52:02.527Z,-5.42
2024-01-09T04:54:28.895Z,-5.47
2024-01-09T04:56:58.578Z,-5.56
2024-01-09T04:59:26.123Z,-5.60
2024-01-09T05:01:52.571Z,-5.58
2024-01-09T05:04:18.916Z,-5.61
2024-01-09T05:06:45.422Z,-5.63
2024-01-09T05:09:12.485Z,-5.69
2024-01-09T05:11:39.037Z,-5.70
2024-01-09T05:14:05.424Z,-5.67
2024-01-09T05:16:31.756Z,-5.71
2024-01-09T05:18:58.292Z,-5.68
2024-01-09T05:21:24.666Z,-5.68
2024-01-09T05:23:51.052Z,-5.68
2024-01-09T05:26:19.269Z,-5.69
2024-01-09T05:28:46.839Z,-5.77
2024-01-09T05:31:13.481Z,-5.79
2024-01-09T05:33:40.021Z,-5.70
2024-01-09T05:36:07.399Z,-5.76
2024-01-09T05:38:34.505Z,-5.80
2024-01-09T05:41:01.018Z,-5.77
2024-01-09T05:43:27.344Z,-5.75
2024-01-09T05:45:53.674Z,-5.81
2024-01-09T05:48:20.140Z,-5.78
2024-01-09T05:50:46.698Z,-5.79
2024-01-09T05:53:13.161Z,-5.81
2024-01-09T05:55:39.569Z,-5.70
2024-01-09T05:58:07.234Z,-5.60
2024-01-09T06:00:33.628Z,-5.57
2024-01-09T06:03:00.023Z,-5.60
2024-01-09T06:05:26.585Z,-5.70
2024-01-09T06:07:52.972Z,-5.72
2024-01-09T06:10:19.320Z,-5.71
2024-01-09T06:12:45.671Z,-5.69
2024-01-09T06:15:12.060Z,-5.66
2024-01-09T06:17:38.525Z,-5.75
2024-01-09T06:20:05.312Z,-5.76
2024-01-09T06:22:31.713Z,-5.70
2024-01-09T06:24:58.330Z,-5.74
2024-01-09T06:27:26.831Z,-5.83
2024-01-09T06:29:53.200Z,-5.82
2024-01-09T06:32:19.776Z,-5.83
2024-01-09T06:34:46.166Z,-5.82
2024-01-09T06:37:12.572Z,-5.78
2024-01-09T06:39:39.014Z,-5.79
2024-01-09T06:42:05.634Z,-5.76
2024-01-09T06:44:32.032Z,-5.84
2024-01-09T06:46:58.413Z,-5.87
2024-01-09T06:49:24.817Z,-5.78
2024-01-09T06:51:51.200Z,-5.87
2024-01-09T06:54:17.582Z,-5.91
2024-01-09T06:56:44.137Z,-5.84
2024-01-09T06:59:10.663Z,-5.78
2024-01-09T07:01:37.213Z,-5.90
2024-01-09T07:04:03.888Z,-5.93
2024-01-09T07:06:30.378Z,-5.92
2024-01-09T07:08:56.824Z,-5.88
2024-01-09T07:11:23.304Z,-5.83
2024-01-09T07:13:49.687Z,-5.81
2024-01-09T07:16:16.062Z,-5.97
2024-01-09T07:18:42.551Z,-5.97
2024-01-09T07:21:09.166Z,-5.89
2024-01-09T07:23:35.730Z,-5.87
2024-01-09T07:26:02.093Z,-5.91
2024-01-09T07:28:30.957Z,-5.77
2024-01-09T07:31:01.191Z,-5.84
2024-01-09T07:33:27.940Z,-5.79
2024-01-09T07:35:54.484Z,-5.83
2024-01-09T07:38:20.927Z,-5.87
2024-01-09T07:40:47.415Z,-5.88
2024-01-09T07:43:13.779Z,-5.92
2024-01-09T07:45:40.105Z,-5.94
2024-01-09T07:48:06.869Z,-5.98
2024-01-09T07:50:33.289Z,-5.98
2024-01-09T07:53:02.129Z,-6.01
2024-01-09T07:55:29.306Z,-5.95
2024-01-09T07:57:55.627Z,-5.83
2024-01-09T08:00:22.129Z,-5.76
2024-01-09T08:02:48.756Z,-5.95
2024-01-09T08:05:15.716Z,-6.04
2024-01-09T08:07:42.176Z,-5.99
2024-01-09T08:10:08.930Z,-5.92
2024-01-09T08:12:35.269Z,-5.78
2024-01-09T08:15:01.770Z,-5.79
2024-01-09T08:17:28.539Z,-5.85
2024-01-09T08:19:55.008Z,-5.97
2024-01-09T08:22:21.424Z,-5.91
2024-01-09T08:24:47.799Z,-5.92
2024-01-09T08:27:14.170Z,-5.84
2024-01-09T08:29:40.694Z,-5.86
2024-01-09T08:32:07.055Z,-5.90
2024-01-09T08:34:33.579Z,-5.99
2024-01-09T08:37:00.020Z,-5.90
2024-01-09T08:39:26.380Z,-6.01
2024-01-09T08:41:52.739Z,-5.86
2024-01-09T08:44:19.152Z,-5.88
2024-01-09T08:46:45.538Z,-5.92
2024-01-09T08:49:11.944Z,-6.01
2024-01-09T08:51:38.346Z,-5.93
2024-01-09T08:54:05.024Z,-5.97
2024-01-09T08:56:31.434Z,-5.99
2024-01-09T08:58:57.827Z,-5.91
2024-01-09T09:01:24.253Z,-5.85
2024-01-09T09:03:50.647Z,-5.88
2024-01-09T09:06:17.119Z,-5.78
2024-01-09T09:08:43.592Z,-5.76
2024-01-09T09:11:10.770Z,-5.89
2024-01-09T09:13:37.162Z,-5.77
2024-01-09T09:16:03.541Z,-5.76
2024-01-09T09:18:30.006Z,-5.81
2024-01-09T09:20:56.568Z,-5.77
2024-01-09T09:23:23.049Z,-5.78
2024-01-09T09:25:49.708Z,-5.79
2024-01-09T09:28:16.133Z,-5.84
2024-01-09T09:30:42.597Z,-5.82
2024-01-09T09:33:09.077Z,-5.86
2024-01-09T09:35:35.514Z,-5.67
2024-01-09T09:38:01.876Z,-5.70
2024-01-09T09:40:28.275Z,-5.61
2024-01-09T09:42:57.690Z,-5.81
2024-01-09T09:45:24.863Z,-5.66
2024-01-09T09:47:54.324Z,-5.76
2024-01-09T09:50:23.305Z,-5.77
2024-01-09T09:52:50.124Z,-5.81
2024-01-09T09:55:18.913Z,-5.82
2024-01-09T09:57:45.532Z,-5.69
2024-01-09T10:00:12.258Z,-5.62
2024-01-09T10:02:45.133Z,-5.72
2024-01-09T10:05:15.856Z,-5.72
2024-01-09T10:07:47.402Z,-5.75
2024-01-09T10:10:15.033Z,-5.75
2024-01-09T10:12:42.468Z,-5.77
2024-01-09T10:15:11.036Z,-5.84
2024-01-09T10:17:38.669Z,-5.70
2024-01-09T10:20:07.099Z,-5.72
2024-01-09T10:22:33.507Z,-5.79
2024-01-09T10:24:59.900Z,-5.81
2024-01-09T10:27:27.106Z,-5.85
2024-01-09T10:29:53.662Z,-5.71
2024-01-09T10:32:20.173Z,-5.80
2024-01-09T10:34:46.865Z,-5.77
2024-01-09T10:37:14.142Z,-5.71
2024-01-09T10:39:40.841Z,-5.68
2024-01-09T10:42:11.033Z,-5.78
2024-01-09T10:44:43.754Z,-5.85
2024-01-09T10:47:10.722Z,-5.82
2024-01-09T10:49:39.808Z,-5.71
2024-01-09T10:52:10.927Z,-5.71
2024-01-09T10:54:39.347Z,-5.66
2024-01-09T10:57:07.747Z,-5.73
2024-01-09T10:59:36.877Z,-5.74
2024-01-09T11:02:04.511Z,-5.70
2024-01-09T11:04:30.890Z,-5.81
2024-01-09T11:06:57.337Z,-5.75
2024-01-09T11:09:25.610Z,-5.77
2024-01-09T11:11:53.092Z,-5.74
2024-01-09T11:14:20.741Z,-5.64
2024-01-09T11:16:49.861Z,-5.63
2024-01-09T11:19:17.071Z,-5.76
2024-01-09T11:21:43.670Z,-5.79
2024-01-09T11:24:09.997Z,-5.68
2024-01-09T11:26:41.685Z,-5.69
2024-01-09T11:29:07.957Z,-5.77
2024-01-09T11:31:34.550Z,-5.74
2024-01-09T11:34:01.163Z,-5.77
2024-01-09T11:36:29.711Z,-5.77
2024-01-09T11:38:56.166Z,-5.81
2024-01-09T11:41:24.258Z,-5.81
2024-01-09T11:43:59.394Z,-5.79
2024-01-09T11:46:28.420Z,-5.74
2024-01-09T11:48:56.057Z,-5.74
2024-01-09T11:51:23.750Z,-5.78
2024-01-09T11:53:50.960Z,-5.58
2024-01-09T11:56:19.305Z,-5.63
2024-01-09T11:58:46.645Z,-5.65
2024-01-09T12:01:13.803Z,-5.62
2024-01-09T12:03:40.315Z,-5.45
2024-01-09T12:06:06.889Z,-5.50
2024-01-09T12:08:33.977Z,-5.57
2024-01-09T12:11:01.829Z,-5.56
2024-01-09T12:13:28.400Z,-5.62
2024-01-09T12:15:55.090Z,-5.49
2024-01-09T12:18:21.627Z,-5.62
2024-01-09T12:20:48.938Z,-5.60
2024-01-09T12:23:15.603Z,-5.67
2024-01-09T12:25:42.804Z,-5.76
2024-01-09T12:28:09.202Z,-5.67
2024-01-09T12:30:35.708Z,-5.49
2024-01-09T12:33:02.429Z,-5.56
2024-01-09T12:35:28.923Z,-5.60
2024-01-09T12:37:55.509Z,-5.55
2024-01-09T12:40:21.888Z,-5.57
2024-01-09T12:43:07.528Z,-5.67
2024-01-09T12:45:33.835Z,-5.71
2024-01-09T12:48:00.342Z,-5.70
2024-01-09T12:50:28.390Z,-5.67
2024-01-09T12:52:54.841Z,-5.65
2024-01-09T12:55:21.204Z,-5.64
2024-01-09T12:57:47.553Z,-5.61
2024-01-09T13:00:14.589Z,-5.64
2024-01-09T13:02:41.057Z,-5.55
2024-01-09T13:05:07.897Z,-5.59
2024-01-09T13:07:34.551Z,-5.52
2024-01-09T13:10:00.895Z,-5.45
2024-01-09T13:12:27.422Z,-5.49
2024-01-09T13:14:53.834Z,-5.49
2024-01-09T13:17:20.194Z,-5.45
2024-01-09T13:19:46.570Z,-5.48
2024-01-09T13:24:42.192Z,-5.51
2024-01-09T13:27:08.579Z,-5.54
2024-01-09T13:32:04.671Z,-5.51
2024-01-09T13:34:31.315Z,-5.61
2024-01-09T13:36:57.810Z,-5.46
2024-01-09T13:39:24.148Z,-5.56
2024-01-09T13:41:50.505Z,-5.52
2024-01-09T13:44:17.257Z,-5.54
2024-01-09T13:46:44.801Z,-5.59
2024-01-09T13:49:11.343Z,-5.63
2024-01-09T13:51:51.270Z,-5.56
2024-01-09T13:54:21.647Z,-5.56
2024-01-09T13:56:47.980Z,-5.57
2024-01-09T13:59:14.377Z,-5.59
2024-01-09T14:01:44.293Z,-5.60
2024-01-09T14:04:12.814Z,-5.66
2024-01-09T14:06:39.140Z,-5.61
2024-01-09T14:09:05.719Z,-5.53
2024-01-09T14:11:32.047Z,-5.50
2024-01-09T14:13:58.418Z,-5.48
2024-01-09T14:16:24.889Z,-5.54
2024-01-09T14:18:51.891Z,-5.47
2024-01-09T14:21:18.251Z,-5.51
2024-01-09T14:23:44.600Z,-5.41
2024-01-09T14:26:11.026Z,-5.37
2024-01-09T14:28:37.567Z,-5.39
2024-01-09T14:31:04.315Z,-5.39
2024-01-09T14:33:30.872Z,-5.43
2024-01-09T14:35:57.275Z,-5.41
2024-01-09T14:38:23.598Z,-5.49
2024-01-09T14:40:50.000Z,-5.48
2024-01-09T14:43:16.356Z,-5.48
2024-01-09T14:45:42.735Z,-5.49
2024-01-09T14:48:09.289Z,-5.55
2024-01-09T14:50:36.263Z,-5.51
2024-01-09T14:53:02.599Z,-5.49
2024-01-09T14:55:29.126Z,-5.57
2024-01-09T14:57:55.506Z,-5.55
2024-01-09T15:00:22.059Z,-5.59
2024-01-09T15:02:48.453Z,-5.62
2024-01-09T15:05:16.897Z,-5.54
2024-01-09T15:07:43.858Z,-5.46
2024-01-09T15:10:10.669Z,-5.41
2024-01-09T15:12:37.032Z,-5.46
2024-01-09T15:15:04.608Z,-5.40
2024-01-09T15:17:30.959Z,-5.47
2024-01-09T15:19:57.386Z,-5.52
2024-01-09T15:22:23.789Z,-5.42
2024-01-09T15:24:50.319Z,-5.45
2024-01-09T15:27:16.669Z,-5.47
2024-01-09T15:29:43.059Z,-5.47
2024-01-09T15:32:09.579Z,-5.49
2024-01-09T15:34:36.030Z,-5.57
2024-01-09T15:37:02.401Z,-5.60
2024-01-09T15:39:28.723Z,-5.53
2024-01-09T15:41:55.044Z,-5.51
2024-01-09T15:44:21.489Z,-5.46
2024-01-09T15:46:48.047Z,-5.61
2024-01-09T15:49:14.486Z,-5.69
2024-01-09T15:51:40.960Z,-5.62
2024-01-09T15:54:07.265Z,-5.57
2024-01-09T15:56:33.677Z,-5.62
2024-01-09T15:59:00.084Z,-5.57
2024-01-09T16:01:26.991Z,-5.64
2024-01-09T16:03:54.128Z,-5.69
2024-01-09T16:06:20.633Z,-5.68
2024-01-09T16:08:49.383Z,-5.57
2024-01-09T16:11:16.881Z,-5.64
2024-01-09T16:13:43.332Z,-5.65
2024-01-09T16:16:17.993Z,-5.67
2024-01-09T16:18:45.332Z,-5.75
2024-01-09T16:21:12.183Z,-5.78
2024-01-09T16:23:39.734Z,-5.77
2024-01-09T16:26:06.607Z,-5.87
2024-01-09T16:28:33.655Z,-5.82
2024-01-09T16:31:00.186Z,-5.83
2024-01-09T16:33:29.680Z,-5.85
2024-01-09T16:35:56.564Z,-5.83
2024-01-09T16:38:22.894Z,-5.83
2024-01-09T16:40:49.390Z,-5.85
2024-01-09T16:43:15.778Z,-5.91
2024-01-09T16:45:42.278Z,-5.97
2024-01-09T16:48:08.919Z,-5.91
2024-01-09T16:50:35.348Z,-6.05
2024-01-09T16:53:01.987Z,-5.99
2024-01-09T16:55:28.340Z,-5.94
2024-01-09T16:57:54.711Z,-5.94
2024-01-09T17:00:21.356Z,-5.89
2024-01-09T17:02:47.750Z,-5.81
2024-01-09T17:05:14.211Z,-5.81
2024-01-09T17:07:40.722Z,-5.90
2024-01-09T17:10:07.460Z,-5.99
2024-01-09T17:12:33.909Z,-6.00
2024-01-09T17:15:00.271Z,-6.00
2024-01-09T17:17:26.710Z,-5.99
2024-01-09T17:19:53.217Z,-5.94
2024-01-09T17:22:19.617Z,-5.97
2024-01-09T17:24:45.954Z,-5.93
2024-01-09T17:27:12.269Z,-5.99
2024-01-09T17:29:40.591Z,-5.94
2024-01-09T17:32:08.458Z,-5.97
2024-01-09T17:34:34.801Z,-5.91
2024-01-09T17:37:01.164Z,-5.88
2024-01-09T17:39:27.563Z,-5.85
2024-01-09T17:41:53.879Z,-5.93
2024-01-09T17:44:20.284Z,-5.93
2024-01-09T17:46:46.690Z,-6.06
2024-01-09T17:49:13.052Z,-6.04
2024-01-09T17:51:40.399Z,-5.93
2024-01-09T17:54:06.989Z,-5.94
2024-01-09T17:56:37.638Z,-5.92
2024-01-09T17:59:04.236Z,-5.98
2024-01-09T18:01:30.615Z,-6.02
2024-01-09T18:03:57.099Z,-5.95
2024-01-09T18:06:23.535Z,-5.98
2024-01-09T18:08:49.876Z,-6.02
2024-01-09T18:11:23.954Z,-6.06
2024-01-09T18:13:51.020Z,-6.03
2024-01-09T18:16:17.368Z,-5.99
2024-01-09T18:18:43.796Z,-6.08
2024-01-09T18:21:10.118Z,-6.10
2024-01-09T18:23:36.494Z,-6.14
2024-01-09T18:26:02.917Z,-6.08
2024-01-09T18:28:29.776Z,-6.04
2024-01-09T18:30:56.434Z,-6.01
2024-01-09T18:33:22.854Z,-6.06
2024-01-09T18:35:49.237Z,-6.10
2024-01-09T18:38:15.627Z,-6.08
2024-01-09T18:40:42.049Z,-6.08
2024-01-09T18:43:08.580Z,-6.07
2024-01-09T18:45:36.860Z,-5.97
2024-01-09T18:48:03.462Z,-6.05
2024-01-09T18:50:29.873Z,-6.06
2024-01-09T18:52:56.271Z,-6.05
2024-01-09T18:55:22.693Z,-6.08
2024-01-09T18:57:48.987Z,-6.08
2024-01-09T19:00:15.764Z,-6.09
2024-01-09T19:02:42.115Z,-6.05
2024-01-09T19:05:09.635Z,-6.06
2024-01-09T19:07:36.143Z,-6.09
2024-01-09T19:10:02.654Z,-6.06
2024-01-09T19:12:29.176Z,-6.08
2024-01-09T19:14:55.591Z,-6.04
2024-01-09T19:17:21.994Z,-6.08
2024-01-09T19:19:48.875Z,-6.22
2024-01-09T19:22:15.362Z,-6.22
2024-01-09T19:24:41.685Z,-6.18
2024-01-09T19:27:08.185Z,-6.21
2024-01-09T19:29:34.723Z,-6.17
2024-01-09T19:32:01.144Z,-6.11
2024-01-09T19:34:27.629Z,-6.14
2024-01-09T19:36:54.059Z,-6.02
2024-01-09T19:39:20.422Z,-5.97
2024-01-09T19:41:46.779Z,-6.03
2024-01-09T19:44:13.256Z,-5.97
2024-01-09T19:46:40.575Z,-5.96
2024-01-09T19:49:07.049Z,-5.99
2024-01-09T19:51:33.465Z,-5.91
2024-01-09T19:53:59.874Z,-5.98
2024-01-09T19:56:30.082Z,-6.00
2024-01-09T19:58:56.488Z,-6.02
2024-01-09T20:01:23.052Z,-6.06
2024-01-09T20:03:49.385Z,-6.01
2024-01-09T20:06:23.043Z,-6.11
2024-01-09T20:08:49.453Z,-6.02
2024-01-09T20:11:26.486Z,-5.96
2024-01-09T20:13:53.368Z,-5.97
2024-01-09T20:16:21.424Z,-6.02
2024-01-09T20:18:48.444Z,-6.04
2024-01-09T20:21:15.501Z,-6.09
2024-01-09T20:23:42.581Z,-6.03
2024-01-09T20:26:09.166Z,-6.06
2024-01-09T20:28:35.953Z,-6.08
2024-01-09T20:31:02.625Z,-6.01
2024-01-09T20:33:29.107Z,-5.95
2024-01-09T20:35:57.371Z,-5.83
2024-01-09T20:38:25.162Z,-5.79
2024-01-09T20:40:51.542Z,-5.90
2024-01-09T20:43:18.010Z,-5.90
2024-01-09T20:45:44.449Z,-5.90
2024-01-09T20:48:10.784Z,-5.86
2024-01-09T20:50:37.214Z,-5.80
2024-01-09T20:53:03.735Z,-5.84
2024-01-09T20:55:30.095Z,-5.73
2024-01-09T20:57:56.401Z,-5.85
2024-01-09T21:00:22.731Z,-5.93
2024-01-09T21:02:49.057Z,-5.87
2024-01-09T21:05:15.552Z,-5.76
2024-01-09T21:07:41.961Z,-5.86
2024-01-09T21:10:09.261Z,-5.90
2024-01-09T21:12:35.994Z,-5.91
2024-01-09T21:15:02.347Z,-5.89
2024-01-09T21:17:28.704Z,-5.90
2024-01-09T21:19:55.325Z,-5.98
2024-01-09T21:22:21.756Z,-6.01
2024-01-09T21:24:48.104Z,-6.00
2024-01-09T21:27:14.455Z,-6.02
2024-01-09T21:29:40.821Z,-5.92
2024-01-09T21:32:07.592Z,-5.88
2024-01-09T21:34:34.117Z,-5.92
2024-01-09T21:37:00.481Z,-5.83
2024-01-09T21:39:26.899Z,-5.87
2024-01-09T21:41:55.838Z,-5.91
2024-01-09T21:44:22.963Z,-5.91
2024-01-09T21:46:49.363Z,-5.98
2024-01-09T21:49:15.842Z,-5.97
2024-01-09T21:51:42.290Z,-5.97
2024-01-09T21:54:08.609Z,-5.86
2024-01-09T21:56:36.821Z,-5.92
2024-01-09T21:59:03.185Z,-5.87
2024-01-09T22:01:30.170Z,-5.82
2024-01-09T22:03:56.919Z,-5.77
2024-01-09T22:06:23.497Z,-5.80
2024-01-09T22:08:49.878Z,-5.82
2024-01-09T22:11:16.262Z,-5.79
2024-01-09T22:13:42.666Z,-5.79
2024-01-09T22:16:09.049Z,-5.74
2024-01-09T22:18:35.492Z,-5.83
2024-01-09T22:21:02.298Z,-5.79
2024-01-09T22:23:28.680Z,-5.83
2024-01-09T22:25:55.074Z,-5.80
2024-01-09T22:28:21.407Z,-5.81
2024-01-09T22:30:47.742Z,-5.63
2024-01-09T22:33:14.192Z,-5.64
2024-01-09T22:35:41.720Z,-5.74
2024-01-09T22:38:08.336Z,-5.74
2024-01-09T22:40:34.901Z,-5.77
2024-01-09T22:43:01.240Z,-5.78
2024-01-09T22:45:27.628Z,-5.73
2024-01-09T22:47:54.057Z,-5.74
2024-01-09T22:50:20.464Z,-5.65
2024-01-09T22:52:46.851Z,-5.75
2024-01-09T22:55:13.267Z,-5.64
2024-01-09T22:57:40.018Z,-5.57
2024-01-09T23:00:08.836Z,-5.65
2024-01-09T23:02:35.523Z,-5.72
2024-01-09T23:05:02.094Z,-5.73
2024-01-09T23:07:28.602Z,-5.76
2024-01-09T23:09:54.917Z,-5.77
2024-01-09T23:12:21.247Z,-5.63
2024-01-09T23:14:47.587Z,-5.74
2024-01-09T23:17:14.968Z,-5.80
2024-01-09T23:19:42.259Z,-5.79
2024-01-09T23:22:08.639Z,-5.65
2024-01-09T23:24:35.156Z,-5.72
2024-01-09T23:27:01.472Z,-5.67
2024-01-09T23:29:30.965Z,-5.68
2024-01-09T23:31:57.344Z,-5.71
2024-01-09T23:34:23.839Z,-5.58
2024-01-09T23:36:50.196Z,-5.59
2024-01-09T23:39:17.062Z,-5.68
2024-01-09T23:41:43.717Z,-5.56
2024-01-09T23:44:10.144Z,-5.64
2024-01-09T23:46:36.639Z,-5.42
2024-01-09T23:49:03.142Z,-5.51
2024-01-09T23:51:29.499Z,-5.56
2024-01-09T23:53:55.823Z,-5.66
2024-01-09T23:56:22.368Z,-5.55
2024-01-09T23:58:48.743Z,-5.45
